Portada
METAR-TAF:

METAR-TAF

Aeroports :

Kumamoto, Japó

latitud: 32-50N, longitud: 130-51E, altitud: 193 m

Observació

L'informe es va fer fa 7 hores i 48 minuts, a les 12:00 UTC
Vent 3 kt del Sud-Oest
Temperatura 14°C
Humitat 100%
Pressió 1010 hPa
Visibilitat 10 km o més
Escasses núvols a una alçada de 1000 ft
Núvols disperses a una alçada de 1500 ft
Cel ennuvolat a una alçada de 2000 ft

METAR: RJFT 211200Z 22003KT 9999 FEW010 SCT015 BKN020 14/14 Q1010

Hora: 04:48 (19:48 UTC)

Pronòstic

L'informe es va fer fa 2 hores i 40 minuts, a les 17:08 UTC
Pronòstic vàlid del 21 a les 18 UTC al 23 a les 00 UTC
Vent 4 kt del Nord-Oest
Visibilitat 10 km o més
Escasses núvols a una alçada de 1000 ft
Cel ennuvolat a una alçada de 2000 ft
Evolucionant progressivament
l' 22 a les 09 UTC al 22 a les 12 UTC
Vent 5 kt del Nord/Nord-Est

TAF: RJFT 211708Z 2118/2300 32004KT 9999 FEW010 BKN020 BECMG 2209/2212 03005KT

Observacions i pronòstics meteorològics de més de 4000 aeroports (METAR i TAF).

Les estacions disponibles són els punts grocs i vermells al mapa.

Posi el ratolí al punt desitjat per veure el nom de l'estació.

Feu clic per veure les observacions i els pronòstics meteorològics.

Per canviar el mapa: feu clic els botons verds amb una creu de color negre per apropar; al botó verd amb un guió per allunyar la imatge; o en les fletxes verdes per a mapes adjacents.


METAR-TAF: